Time;durP1;ratioP1;P1;durP2;ratioP2;P2;SDS_P1;SDS_P2;PMS_P1;PMS_P2;Temp;Humidity;BMP_temperature;BMP_pressure;BME280_temperature;BME280_humidity;BME280_pressure;Samples;Min_cycle;Max_cycle;Signal;HPM_P1;HPM_P2
2022/11/09 00:01:09;;;;;;;15.07;7.72;;;;;;;;;;5053101;28;20079;-76
2022/11/09 00:03:35;;;;;;;17.52;8.00;;;;;;;;;;5053128;28;20425;-76
2022/11/09 00:06:00;;;;;;;12.82;7.28;;;;;;;;;;5035279;28;20028;-76
2022/11/09 00:08:25;;;;;;;15.20;7.85;;;;;;;;;;5053048;28;20463;-76
2022/11/09 00:10:51;;;;;;;13.73;7.43;;;;;;;;;;5053208;28;20025;-76
2022/11/09 00:13:16;;;;;;;13.23;7.57;;;;;;;;;;5053255;28;20091;-76
2022/11/09 00:15:41;;;;;;;13.40;7.35;;;;;;;;;;5052989;28;20070;-76
2022/11/09 00:18:07;;;;;;;16.77;7.60;;;;;;;;;;5052991;28;20115;-76
2022/11/09 00:20:32;;;;;;;14.00;7.40;;;;;;;;;;5052904;28;20079;-77
2022/11/09 00:22:57;;;;;;;13.23;7.35;;;;;;;;;;5052962;28;20138;-77
2022/11/09 00:25:23;;;;;;;12.18;7.20;;;;;;;;;;5052855;28;20013;-76
2022/11/09 00:27:48;;;;;;;15.30;7.85;;;;;;;;;;5053210;28;20390;-76
2022/11/09 00:30:14;;;;;;;13.48;7.32;;;;;;;;;;5052775;28;20126;-76
2022/11/09 00:32:39;;;;;;;14.70;7.30;;;;;;;;;;5053289;28;20021;-76
2022/11/09 00:35:05;;;;;;;12.82;6.82;;;;;;;;;;5052702;28;20025;-76
2022/11/09 00:37:30;;;;;;;13.45;7.75;;;;;;;;;;5053086;28;20017;-77
2022/11/09 00:39:55;;;;;;;12.90;7.30;;;;;;;;;;5052738;28;20033;-75
2022/11/09 00:42:21;;;;;;;11.63;6.80;;;;;;;;;;5051522;28;20074;-75
2022/11/09 00:44:46;;;;;;;12.85;7.35;;;;;;;;;;5052637;28;20017;-76
2022/11/09 00:47:11;;;;;;;12.27;7.70;;;;;;;;;;5034844;28;20021;-76
2022/11/09 00:49:37;;;;;;;11.45;7.15;;;;;;;;;;5039371;28;20541;-76
2022/11/09 00:52:02;;;;;;;11.07;6.90;;;;;;;;;;5056357;28;20025;-75
2022/11/09 00:54:28;;;;;;;13.63;7.07;;;;;;;;;;5055810;28;20057;-77
2022/11/09 00:56:53;;;;;;;13.60;7.18;;;;;;;;;;5056764;28;20016;-75
2022/11/09 00:59:18;;;;;;;15.93;7.38;;;;;;;;;;5056369;28;20021;-76
2022/11/09 01:01:43;;;;;;;14.38;7.63;;;;;;;;;;5056381;28;20032;-76
2022/11/09 01:04:09;;;;;;;16.15;7.72;;;;;;;;;;5056321;28;20064;-76
2022/11/09 01:06:34;;;;;;;13.60;7.35;;;;;;;;;;5055067;28;20052;-77
2022/11/09 01:08:59;;;;;;;14.57;7.03;;;;;;;;;;5038418;28;20025;-77
2022/11/09 01:11:24;;;;;;;12.50;6.70;;;;;;;;;;5056339;28;20024;-77
2022/11/09 01:13:50;;;;;;;12.27;7.28;;;;;;;;;;5054857;28;20082;-77
2022/11/09 01:16:18;;;;;;;13.02;6.75;;;;;;;;;;5056105;28;20036;-77
2022/11/09 01:18:44;;;;;;;13.60;7.82;;;;;;;;;;5056055;28;20033;-77
2022/11/09 01:21:11;;;;;;;15.52;7.88;;;;;;;;;;5056009;28;20036;-77
2022/11/09 01:23:38;;;;;;;16.58;7.25;;;;;;;;;;5038067;28;20047;-77
2022/11/09 01:26:06;;;;;;;16.13;8.25;;;;;;;;;;5055927;28;20021;-77
2022/11/09 01:28:32;;;;;;;14.75;8.20;;;;;;;;;;5056150;28;20442;-76
2022/11/09 01:31:03;;;;;;;17.48;8.02;;;;;;;;;;5037880;28;20064;-76
2022/11/09 01:33:29;;;;;;;15.43;8.13;;;;;;;;;;5037885;28;20055;-76
2022/11/09 01:35:54;;;;;;;13.07;8.25;;;;;;;;;;5055860;28;20024;-76
2022/11/09 01:38:19;;;;;;;15.88;8.27;;;;;;;;;;5055807;28;20462;-76
2022/11/09 01:40:44;;;;;;;13.43;7.88;;;;;;;;;;5055590;28;20025;-76
2022/11/09 01:43:21;;;;;;;15.80;7.65;;;;;;;;;;5037730;28;20517;-76
2022/11/09 01:46:00;;;;;;;12.38;7.95;;;;;;;;;;5055757;28;20062;-76
2022/11/09 01:48:54;;;;;;;17.65;8.52;;;;;;;;;;5056041;28;20021;-76
2022/11/09 01:51:26;;;;;;;15.13;8.07;;;;;;;;;;5052644;28;20041;-76
2022/11/09 01:54:00;;;;;;;13.95;7.10;;;;;;;;;;5037400;28;20025;-76
2022/11/09 01:56:26;;;;;;;12.43;7.65;;;;;;;;;;5055805;28;20028;-77
2022/11/09 01:58:56;;;;;;;14.30;7.85;;;;;;;;;;5055067;28;20033;-77
2022/11/09 02:01:22;;;;;;;13.13;7.97;;;;;;;;;;5054678;28;20032;-78
2022/11/09 02:03:54;;;;;;;15.30;8.13;;;;;;;;;;5055377;28;20025;-76
2022/11/09 02:06:22;;;;;;;14.05;7.95;;;;;;;;;;5055633;28;20059;-76
2022/11/09 02:08:48;;;;;;;15.35;8.43;;;;;;;;;;5055154;28;20032;-76
2022/11/09 02:11:19;;;;;;;16.55;8.20;;;;;;;;;;5055376;28;20419;-76
2022/11/09 02:13:50;;;;;;;14.30;8.15;;;;;;;;;;5055051;28;20028;-76
2022/11/09 02:16:17;;;;;;;14.63;8.65;;;;;;;;;;5055344;28;20104;-77
2022/11/09 02:18:53;;;;;;;13.63;8.18;;;;;;;;;;5055033;28;20492;-76
2022/11/09 02:21:21;;;;;;;14.18;8.52;;;;;;;;;;5055047;28;20489;-77
2022/11/09 02:23:47;;;;;;;13.75;7.82;;;;;;;;;;5036977;28;20032;-77
2022/11/09 02:26:23;;;;;;;14.98;7.97;;;;;;;;;;5055146;28;20021;-75
2022/11/09 02:28:50;;;;;;;14.00;7.43;;;;;;;;;;5037129;28;20021;-76
2022/11/09 02:31:17;;;;;;;14.15;8.13;;;;;;;;;;5054673;28;20021;-77
2022/11/09 02:33:55;;;;;;;15.32;8.40;;;;;;;;;;5054683;28;20036;-77
2022/11/09 02:36:22;;;;;;;13.80;7.63;;;;;;;;;;5054634;28;20036;-76
2022/11/09 02:38:49;;;;;;;15.10;8.45;;;;;;;;;;5036853;28;20478;-77
2022/11/09 02:41:15;;;;;;;18.27;9.27;;;;;;;;;;5054827;28;20025;-76
2022/11/09 02:43:40;;;;;;;16.15;8.15;;;;;;;;;;5054772;28;20021;-77
2022/11/09 02:46:05;;;;;;;13.45;7.22;;;;;;;;;;5054425;28;20394;-77
2022/11/09 02:48:31;;;;;;;13.82;8.00;;;;;;;;;;5054411;28;20092;-76
2022/11/09 02:50:56;;;;;;;15.02;8.85;;;;;;;;;;5054539;28;20112;-76
2022/11/09 02:53:21;;;;;;;15.38;9.10;;;;;;;;;;5054990;28;20033;-77
2022/11/09 02:55:46;;;;;;;16.70;8.98;;;;;;;;;;5036727;28;20024;-77
2022/11/09 02:58:12;;;;;;;14.38;8.05;;;;;;;;;;5054542;28;20474;-77
2022/11/09 03:00:37;;;;;;;14.63;8.50;;;;;;;;;;5054335;28;20068;-77
2022/11/09 03:03:03;;;;;;;15.13;8.82;;;;;;;;;;5036291;28;20124;-76
2022/11/09 03:05:28;;;;;;;17.10;9.30;;;;;;;;;;5054255;28;20021;-77
2022/11/09 03:07:55;;;;;;;19.63;8.82;;;;;;;;;;5054269;28;20025;-77
2022/11/09 03:10:20;;;;;;;15.77;8.55;;;;;;;;;;5053809;28;20024;-76
2022/11/09 03:12:45;;;;;;;16.13;8.38;;;;;;;;;;5036036;28;20459;-76
2022/11/09 03:15:11;;;;;;;15.45;7.50;;;;;;;;;;5054053;28;20028;-76
2022/11/09 03:17:36;;;;;;;15.32;8.63;;;;;;;;;;5054382;28;20509;-75
2022/11/09 03:20:02;;;;;;;16.65;8.30;;;;;;;;;;5035872;28;20024;-76
2022/11/09 03:22:28;;;;;;;13.30;8.27;;;;;;;;;;5053770;28;20444;-76
2022/11/09 03:24:53;;;;;;;15.30;8.45;;;;;;;;;;5053667;28;20020;-77
2022/11/09 03:27:18;;;;;;;12.38;7.70;;;;;;;;;;5052478;28;20082;-78
2022/11/09 03:29:43;;;;;;;18.42;8.73;;;;;;;;;;5053898;28;20028;-77
2022/11/09 03:32:09;;;;;;;14.80;8.80;;;;;;;;;;5053712;28;20029;-77
2022/11/09 03:34:35;;;;;;;13.15;7.82;;;;;;;;;;5035604;28;20028;-76
2022/11/09 03:37:00;;;;;;;13.77;7.88;;;;;;;;;;5053559;28;20103;-77
2022/11/09 03:39:25;;;;;;;14.30;7.88;;;;;;;;;;5053480;28;20017;-76
2022/11/09 03:41:50;;;;;;;16.13;8.10;;;;;;;;;;5053634;28;20497;-77
2022/11/09 03:44:16;;;;;;;15.80;8.50;;;;;;;;;;5053667;28;20033;-77
2022/11/09 03:46:41;;;;;;;13.95;8.15;;;;;;;;;;5053582;28;20036;-77
2022/11/09 03:49:06;;;;;;;16.13;8.80;;;;;;;;;;5053378;28;20052;-77
2022/11/09 03:51:32;;;;;;;14.20;8.23;;;;;;;;;;5053173;28;20029;-77
2022/11/09 03:53:57;;;;;;;16.00;8.70;;;;;;;;;;5035348;28;20119;-76
2022/11/09 03:56:23;;;;;;;17.20;8.68;;;;;;;;;;5051918;28;20021;-77
2022/11/09 03:58:48;;;;;;;14.27;8.02;;;;;;;;;;5053122;28;20471;-77
2022/11/09 04:01:13;;;;;;;15.27;6.90;;;;;;;;;;5053131;28;20032;-77
2022/11/09 04:03:38;;;;;;;14.73;8.02;;;;;;;;;;5053636;28;20032;-76
2022/11/09 04:06:04;;;;;;;13.27;7.32;;;;;;;;;;5051777;28;20086;-77
2022/11/09 04:08:29;;;;;;;15.82;8.43;;;;;;;;;;5053234;28;20052;-77
2022/11/09 04:10:55;;;;;;;13.40;7.65;;;;;;;;;;5053159;28;20025;-76
2022/11/09 04:13:21;;;;;;;13.25;7.25;;;;;;;;;;5052997;28;20074;-76
2022/11/09 04:15:46;;;;;;;12.43;7.57;;;;;;;;;;5053135;28;20359;-76
2022/11/09 04:18:13;;;;;;;16.70;8.52;;;;;;;;;;5052944;28;20081;-77
2022/11/09 04:20:39;;;;;;;14.18;7.95;;;;;;;;;;5052936;28;20051;-76
2022/11/09 04:23:06;;;;;;;16.75;8.05;;;;;;;;;;5056023;28;20474;-76
2022/11/09 04:25:34;;;;;;;13.68;8.32;;;;;;;;;;5059502;28;20020;-77
2022/11/09 04:28:01;;;;;;;14.63;8.40;;;;;;;;;;5059456;28;20493;-77
2022/11/09 04:30:27;;;;;;;14.73;8.40;;;;;;;;;;5058074;28;20461;-77
2022/11/09 04:32:54;;;;;;;13.30;8.18;;;;;;;;;;5059608;28;20082;-77
2022/11/09 04:35:20;;;;;;;14.40;7.85;;;;;;;;;;5060073;28;20043;-76
2022/11/09 04:37:53;;;;;;;13.50;8.23;;;;;;;;;;5059382;28;20028;-77
2022/11/09 04:40:18;;;;;;;13.75;8.02;;;;;;;;;;5059490;28;20017;-76
2022/11/09 04:42:43;;;;;;;14.80;8.07;;;;;;;;;;5041559;28;20029;-76
2022/11/09 04:45:09;;;;;;;8.82;5.15;;;;;;;;;;5059447;28;20071;-77
2022/11/09 04:47:34;;;;;;;14.85;7.90;;;;;;;;;;5059602;28;20481;-77
2022/11/09 04:49:59;;;;;;;11.65;6.93;;;;;;;;;;5059124;28;20482;-76
2022/11/09 04:52:25;;;;;;;12.90;7.65;;;;;;;;;;5059605;28;20108;-75
2022/11/09 04:54:50;;;;;;;13.55;8.38;;;;;;;;;;5059173;28;20032;-77
2022/11/09 04:57:15;;;;;;;15.38;7.80;;;;;;;;;;5059181;28;20036;-77
2022/11/09 04:59:40;;;;;;;13.60;7.50;;;;;;;;;;5041285;28;20469;-76
2022/11/09 05:02:06;;;;;;;14.82;8.30;;;;;;;;;;5059080;28;20025;-77
2022/11/09 05:04:31;;;;;;;11.25;6.18;;;;;;;;;;5059435;28;20067;-77
2022/11/09 05:06:56;;;;;;;11.57;7.05;;;;;;;;;;5041304;28;20029;-77
2022/11/09 05:09:21;;;;;;;9.60;5.80;;;;;;;;;;5059593;28;20454;-77
2022/11/09 05:11:47;;;;;;;12.50;6.80;;;;;;;;;;5059332;28;20024;-76
2022/11/09 05:14:12;;;;;;;11.82;7.40;;;;;;;;;;5059238;28;20075;-75
2022/11/09 05:16:37;;;;;;;14.02;7.47;;;;;;;;;;5059204;28;20029;-76
2022/11/09 05:19:02;;;;;;;14.30;8.00;;;;;;;;;;5059276;28;20040;-77
2022/11/09 05:21:28;;;;;;;15.65;7.38;;;;;;;;;;5059108;28;20378;-76
2022/11/09 05:23:59;;;;;;;13.07;7.60;;;;;;;;;;5059170;28;20070;-75
2022/11/09 05:26:25;;;;;;;14.80;8.38;;;;;;;;;;5059614;28;20039;-78
2022/11/09 05:28:51;;;;;;;15.95;7.68;;;;;;;;;;5059373;28;20053;-76
2022/11/09 05:31:17;;;;;;;14.48;8.02;;;;;;;;;;5059076;28;20025;-77
2022/11/09 05:33:42;;;;;;;14.70;7.78;;;;;;;;;;5058498;28;20037;-76
2022/11/09 05:36:07;;;;;;;14.50;7.88;;;;;;;;;;5055779;28;20021;-76
2022/11/09 05:38:33;;;;;;;12.85;7.38;;;;;;;;;;5054894;28;20033;-76
2022/11/09 05:40:58;;;;;;;11.88;6.82;;;;;;;;;;5054338;28;20025;-76
2022/11/09 05:43:23;;;;;;;13.43;7.72;;;;;;;;;;5055915;28;20178;-76
2022/11/09 05:45:48;;;;;;;14.15;7.60;;;;;;;;;;5055958;28;20025;-76
2022/11/09 05:48:16;;;;;;;14.27;7.93;;;;;;;;;;5055530;28;20079;-76
2022/11/09 05:50:41;;;;;;;12.93;7.95;;;;;;;;;;5055414;28;20029;-75
2022/11/09 05:53:08;;;;;;;13.15;7.68;;;;;;;;;;5055461;28;20104;-76
2022/11/09 05:55:34;;;;;;;14.48;7.60;;;;;;;;;;5055594;28;20075;-76
2022/11/09 05:57:59;;;;;;;15.10;8.18;;;;;;;;;;5055431;28;20394;-76
2022/11/09 06:00:25;;;;;;;13.55;7.60;;;;;;;;;;5037433;28;20074;-75
2022/11/09 06:02:51;;;;;;;15.45;7.57;;;;;;;;;;5055643;28;20104;-76
2022/11/09 06:05:16;;;;;;;13.82;7.60;;;;;;;;;;5055290;28;20023;-76
2022/11/09 06:07:42;;;;;;;14.52;8.00;;;;;;;;;;5055244;28;20025;-77
2022/11/09 06:10:08;;;;;;;12.88;7.57;;;;;;;;;;5037275;28;20021;-76
2022/11/09 06:12:33;;;;;;;14.82;7.35;;;;;;;;;;5055304;28;20024;-76
2022/11/09 06:14:58;;;;;;;13.65;7.75;;;;;;;;;;5037036;28;20033;-76
2022/11/09 06:17:24;;;;;;;14.75;8.18;;;;;;;;;;5055076;28;20027;-76
2022/11/09 06:19:49;;;;;;;13.85;7.95;;;;;;;;;;5054946;28;20086;-76
2022/11/09 06:22:14;;;;;;;14.65;7.82;;;;;;;;;;5054893;28;20025;-76
2022/11/09 06:24:40;;;;;;;15.30;7.65;;;;;;;;;;5054912;28;20036;-77
2022/11/09 06:27:05;;;;;;;14.70;7.35;;;;;;;;;;5054977;28;20035;-77
2022/11/09 06:29:30;;;;;;;13.55;8.00;;;;;;;;;;5055319;28;20497;-77
2022/11/09 06:31:56;;;;;;;11.55;6.90;;;;;;;;;;5054794;28;20070;-77
2022/11/09 06:34:21;;;;;;;13.50;7.57;;;;;;;;;;5054667;28;20025;-76
2022/11/09 06:36:46;;;;;;;14.93;7.70;;;;;;;;;;5054900;28;20025;-76
2022/11/09 06:39:12;;;;;;;12.55;7.10;;;;;;;;;;5054849;28;20036;-76
2022/11/09 06:41:37;;;;;;;15.07;7.72;;;;;;;;;;5054441;28;20029;-76
2022/11/09 06:44:04;;;;;;;12.27;7.35;;;;;;;;;;5054789;28;20557;-76
2022/11/09 06:46:30;;;;;;;11.15;7.07;;;;;;;;;;5035968;28;20025;-76
2022/11/09 06:48:55;;;;;;;15.20;7.65;;;;;;;;;;5054485;28;20104;-77
2022/11/09 06:51:21;;;;;;;11.75;6.95;;;;;;;;;;5054271;28;20079;-77
2022/11/09 06:53:46;;;;;;;13.98;7.10;;;;;;;;;;5053221;28;20036;-77
2022/11/09 06:56:11;;;;;;;12.13;7.22;;;;;;;;;;5036626;28;20055;-77
2022/11/09 06:58:37;;;;;;;11.98;7.00;;;;;;;;;;5054221;28;20021;-75
2022/11/09 07:01:10;;;;;;;12.77;7.05;;;;;;;;;;5036261;28;20024;-76
2022/11/09 07:03:36;;;;;;;10.65;6.60;;;;;;;;;;5054143;28;20025;-76
2022/11/09 07:06:07;;;;;;;11.50;7.40;;;;;;;;;;5054313;28;20466;-76
2022/11/09 07:08:33;;;;;;;14.50;7.93;;;;;;;;;;5054248;28;20079;-76
2022/11/09 07:11:04;;;;;;;8.52;5.32;;;;;;;;;;5053894;28;20031;-76
2022/11/09 07:13:30;;;;;;;14.63;7.63;;;;;;;;;;5054387;28;20066;-76
2022/11/09 07:15:55;;;;;;;13.95;7.15;;;;;;;;;;5053836;28;20049;-77
2022/11/09 07:18:20;;;;;;;13.85;7.35;;;;;;;;;;5054067;28;20449;-76
2022/11/09 07:20:46;;;;;;;12.50;6.72;;;;;;;;;;5053690;28;20021;-76
2022/11/09 07:23:11;;;;;;;14.65;7.53;;;;;;;;;;5035934;28;20070;-77
2022/11/09 07:25:36;;;;;;;15.52;6.95;;;;;;;;;;5053660;28;20070;-77
2022/11/09 07:28:07;;;;;;;13.60;7.80;;;;;;;;;;5053626;28;20387;-76
2022/11/09 07:30:33;;;;;;;13.80;7.43;;;;;;;;;;5053525;28;20044;-76
2022/11/09 07:32:58;;;;;;;14.00;7.32;;;;;;;;;;5053691;28;20033;-75
2022/11/09 07:35:25;;;;;;;13.98;8.38;;;;;;;;;;5037277;28;20036;-76
2022/11/09 07:37:50;;;;;;;16.60;8.27;;;;;;;;;;5054366;28;20379;-78
2022/11/09 07:40:16;;;;;;;12.68;7.40;;;;;;;;;;5035700;28;20020;-76
2022/11/09 07:42:42;;;;;;;13.57;6.80;;;;;;;;;;5053805;28;20036;-76
2022/11/09 07:45:07;;;;;;;17.95;7.97;;;;;;;;;;5053368;28;20482;-76
2022/11/09 07:47:32;;;;;;;14.10;7.82;;;;;;;;;;5053584;28;20029;-75
2022/11/09 07:49:58;;;;;;;15.27;8.20;;;;;;;;;;5053005;28;20032;-75
2022/11/09 07:52:23;;;;;;;13.98;7.30;;;;;;;;;;5053364;28;20024;-75
2022/11/09 07:54:48;;;;;;;16.27;7.97;;;;;;;;;;5053166;28;20531;-76
2022/11/09 07:57:13;;;;;;;13.73;7.93;;;;;;;;;;5052598;28;20036;-77
2022/11/09 07:59:39;;;;;;;10.98;7.07;;;;;;;;;;5052752;28;20048;-76
2022/11/09 08:02:04;;;;;;;14.10;8.55;;;;;;;;;;5053136;28;20020;-75
2022/11/09 08:04:29;;;;;;;15.27;7.82;;;;;;;;;;5053465;28;20115;-75
2022/11/09 08:06:54;;;;;;;14.25;7.72;;;;;;;;;;5053487;28;20044;-75
2022/11/09 08:09:20;;;;;;;14.75;8.15;;;;;;;;;;5052725;28;20390;-76
2022/11/09 08:11:45;;;;;;;14.60;8.18;;;;;;;;;;5052722;28;20102;-76
2022/11/09 08:14:10;;;;;;;14.07;8.65;;;;;;;;;;5052371;28;20072;-77
2022/11/09 08:16:36;;;;;;;13.48;7.75;;;;;;;;;;5052868;28;20025;-76
2022/11/09 08:19:01;;;;;;;14.35;7.45;;;;;;;;;;5052767;28;20393;-76
2022/11/09 08:21:26;;;;;;;14.13;8.07;;;;;;;;;;5052722;28;20035;-76
2022/11/09 08:23:52;;;;;;;16.20;7.70;;;;;;;;;;5052953;28;20109;-76
2022/11/09 08:26:17;;;;;;;13.07;7.55;;;;;;;;;;5052740;28;20390;-76
2022/11/09 08:28:42;;;;;;;11.82;7.45;;;;;;;;;;5051399;28;20020;-77
2022/11/09 08:31:08;;;;;;;12.70;7.68;;;;;;;;;;5052752;28;20071;-77
2022/11/09 08:33:37;;;;;;;13.95;7.80;;;;;;;;;;5052649;28;20029;-76
2022/11/09 08:36:13;;;;;;;10.10;6.65;;;;;;;;;;5052661;28;20029;-76
2022/11/09 08:38:38;;;;;;;12.40;6.60;;;;;;;;;;5052713;28;20477;-77
2022/11/09 08:41:04;;;;;;;11.95;7.47;;;;;;;;;;5052818;28;20029;-76
2022/11/09 08:43:30;;;;;;;14.32;7.93;;;;;;;;;;5052564;28;20029;-76
2022/11/09 08:45:55;;;;;;;13.35;7.75;;;;;;;;;;5034986;28;20025;-76
2022/11/09 08:48:20;;;;;;;12.65;7.28;;;;;;;;;;5052865;28;20068;-76
2022/11/09 08:50:50;;;;;;;13.32;7.32;;;;;;;;;;5051027;28;20094;-75
2022/11/09 08:53:16;;;;;;;16.25;7.20;;;;;;;;;;5052982;28;20108;-75
2022/11/09 08:55:45;;;;;;;10.73;6.07;;;;;;;;;;5052444;28;20104;-76
2022/11/09 08:58:10;;;;;;;12.70;7.78;;;;;;;;;;5034981;28;20043;-77
2022/11/09 09:00:35;;;;;;;10.88;6.85;;;;;;;;;;5051123;28;20029;-76
2022/11/09 09:03:04;;;;;;;13.73;8.00;;;;;;;;;;5052496;28;20104;-77
2022/11/09 09:05:30;;;;;;;12.48;7.28;;;;;;;;;;5052397;28;20017;-76
2022/11/09 09:08:00;;;;;;;13.35;7.18;;;;;;;;;;5052445;28;20394;-76
2022/11/09 09:10:26;;;;;;;12.18;7.10;;;;;;;;;;5056548;28;20060;-76
2022/11/09 09:12:52;;;;;;;9.52;6.18;;;;;;;;;;5054853;28;20500;-75
2022/11/09 09:15:17;;;;;;;10.57;6.15;;;;;;;;;;5056106;28;20035;-76
2022/11/09 09:17:42;;;;;;;9.23;6.35;;;;;;;;;;5054735;28;20082;-77
2022/11/09 09:20:08;;;;;;;10.50;6.30;;;;;;;;;;5055914;28;20440;-75
2022/11/09 09:22:33;;;;;;;11.30;6.43;;;;;;;;;;5056439;28;20075;-76
2022/11/09 09:24:59;;;;;;;9.43;5.75;;;;;;;;;;5056019;28;20017;-75
2022/11/09 09:27:24;;;;;;;9.70;5.78;;;;;;;;;;5037995;28;20162;-75
2022/11/09 09:29:49;;;;;;;8.65;5.93;;;;;;;;;;5056037;28;20025;-75
2022/11/09 09:32:15;;;;;;;9.82;5.93;;;;;;;;;;5055612;28;20074;-76
2022/11/09 09:34:40;;;;;;;9.80;6.07;;;;;;;;;;5055429;28;20107;-76
2022/11/09 09:37:05;;;;;;;10.88;6.25;;;;;;;;;;5055725;28;20032;-76
2022/11/09 09:39:31;;;;;;;7.35;4.53;;;;;;;;;;5055630;28;20500;-75
2022/11/09 09:42:03;;;;;;;13.88;5.80;;;;;;;;;;5055750;28;20066;-76
2022/11/09 09:44:33;;;;;;;9.10;5.75;;;;;;;;;;5055983;28;20049;-75
2022/11/09 09:47:12;;;;;;;11.93;6.20;;;;;;;;;;5055327;28;20079;-76
2022/11/09 09:49:42;;;;;;;7.95;5.22;;;;;;;;;;5055423;28;20075;-75
2022/11/09 09:52:36;;;;;;;9.07;5.93;;;;;;;;;;5055250;28;20036;-76
2022/11/09 09:55:04;;;;;;;8.33;5.57;;;;;;;;;;5038340;28;20025;-76
2022/11/09 09:57:31;;;;;;;9.05;5.35;;;;;;;;;;5054058;28;20048;-76
2022/11/09 10:00:00;;;;;;;11.00;5.50;;;;;;;;;;5055046;28;20124;-77
2022/11/09 10:02:28;;;;;;;10.20;5.32;;;;;;;;;;5056247;28;20104;-76
2022/11/09 10:04:58;;;;;;;8.45;5.25;;;;;;;;;;5037321;28;20023;-76
2022/11/09 10:07:35;;;;;;;8.05;4.63;;;;;;;;;;5055273;28;20024;-76
2022/11/09 10:10:30;;;;;;;7.07;5.00;;;;;;;;;;5055370;28;20025;-76
2022/11/09 10:13:10;;;;;;;7.78;5.20;;;;;;;;;;5037257;28;20021;-76
2022/11/09 10:16:00;;;;;;;7.15;4.75;;;;;;;;;;5054945;28;20025;-76
2022/11/09 10:19:00;;;;;;;8.25;5.10;;;;;;;;;;5055481;28;20378;-77
2022/11/09 10:21:59;;;;;;;8.88;4.55;;;;;;;;;;5036378;28;20021;-77
2022/11/09 10:24:40;;;;;;;10.50;5.25;;;;;;;;;;5037942;28;20020;-75
2022/11/09 10:27:35;;;;;;;7.93;5.15;;;;;;;;;;5055661;28;20025;-76
2022/11/09 10:30:11;;;;;;;6.70;4.57;;;;;;;;;;5055256;28;20466;-76
2022/11/09 10:32:37;;;;;;;9.70;5.03;;;;;;;;;;5054042;28;20528;-76
2022/11/09 10:35:19;;;;;;;7.70;5.13;;;;;;;;;;5055133;28;20029;-77
2022/11/09 10:37:47;;;;;;;13.63;5.25;;;;;;;;;;5055150;28;20394;-76
2022/11/09 10:40:31;;;;;;;9.48;5.90;;;;;;;;;;5055049;28;20051;-77
2022/11/09 10:42:59;;;;;;;9.20;5.60;;;;;;;;;;5054770;28;20053;-77
2022/11/09 10:45:33;;;;;;;11.68;5.47;;;;;;;;;;5054957;28;20524;-77
2022/11/09 10:47:59;;;;;;;11.90;6.20;;;;;;;;;;5037548;28;20425;-76
2022/11/09 10:50:45;;;;;;;10.52;6.13;;;;;;;;;;5036347;28;20406;-76
2022/11/09 10:53:25;;;;;;;9.00;5.75;;;;;;;;;;5054624;28;20055;-76
2022/11/09 10:55:53;;;;;;;9.15;5.97;;;;;;;;;;5054474;28;20025;-76
2022/11/09 10:58:24;;;;;;;8.98;5.75;;;;;;;;;;5036572;28;20067;-75
2022/11/09 11:00:57;;;;;;;7.78;5.57;;;;;;;;;;5036835;28;20110;-76
2022/11/09 11:03:23;;;;;;;9.70;6.00;;;;;;;;;;5054845;28;20021;-76
2022/11/09 11:05:57;;;;;;;10.25;5.72;;;;;;;;;;5036934;28;20033;-77
2022/11/09 11:08:30;;;;;;;;;;;;;;;;;;5053476;28;20088;-77
2022/11/09 11:11:20;;;;;;;11.40;6.20;;;;;;;;;;5054232;28;19908;-77
2022/11/09 11:13:47;;;;;;;8.90;5.65;;;;;;;;;;5036557;28;20028;-77
2022/11/09 11:16:25;;;;;;;8.57;4.38;;;;;;;;;;5054204;28;20119;-77
2022/11/09 11:18:51;;;;;;;8.25;4.75;;;;;;;;;;5054531;28;20082;-77
2022/11/09 11:21:19;;;;;;;9.45;6.22;;;;;;;;;;5054032;28;20032;-76
2022/11/09 11:24:01;;;;;;;10.40;6.13;;;;;;;;;;5036019;28;20555;-77
2022/11/09 11:26:38;;;;;;;9.00;5.63;;;;;;;;;;5054067;28;20025;-76
2022/11/09 11:29:20;;;;;;;10.25;5.97;;;;;;;;;;5054169;28;20134;-75
2022/11/09 11:31:47;;;;;;;8.10;5.22;;;;;;;;;;5053941;28;20478;-77
2022/11/09 11:34:14;;;;;;;9.85;5.93;;;;;;;;;;5036279;28;20040;-76
2022/11/09 11:37:00;;;;;;;7.97;5.22;;;;;;;;;;5053892;28;20021;-77
2022/11/09 11:39:31;;;;;;;8.73;5.35;;;;;;;;;;5053800;28;20063;-76
2022/11/09 11:42:14;;;;;;;8.65;5.53;;;;;;;;;;5053534;28;20025;-76
2022/11/09 11:45:13;;;;;;;9.02;5.70;;;;;;;;;;5053737;28;20044;-78
2022/11/09 11:47:47;;;;;;;7.25;4.60;;;;;;;;;;5022451;28;20481;-76
2022/11/09 11:50:31;;;;;;;8.05;5.53;;;;;;;;;;5054720;28;20060;-76
2022/11/09 11:53:24;;;;;;;9.13;5.35;;;;;;;;;;5053741;28;20025;-76
2022/11/09 11:56:29;;;;;;;8.82;4.97;;;;;;;;;;5053641;28;20032;-77
2022/11/09 11:59:16;;;;;;;11.95;5.50;;;;;;;;;;5032031;28;20036;-77
2022/11/09 12:02:18;;;;;;;8.38;5.10;;;;;;;;;;5053150;28;20037;-77
2022/11/09 12:05:17;;;;;;;10.55;5.43;;;;;;;;;;5053396;28;20025;-75
2022/11/09 12:07:55;;;;;;;8.45;5.15;;;;;;;;;;5035985;28;20120;-76
2022/11/09 12:10:46;;;;;;;10.35;5.78;;;;;;;;;;5035238;28;20021;-76
2022/11/09 12:13:38;;;;;;;9.25;6.07;;;;;;;;;;5022327;28;20122;-75
2022/11/09 12:16:09;;;;;;;9.77;5.93;;;;;;;;;;5052855;28;20017;-76
2022/11/09 12:18:47;;;;;;;8.73;5.13;;;;;;;;;;5035055;28;20021;-77
2022/11/09 12:21:36;;;;;;;14.05;6.57;;;;;;;;;;5053124;28;20020;-76
2022/11/09 12:24:34;;;;;;;11.02;4.75;;;;;;;;;;5053157;28;20036;-76
2022/11/09 12:27:22;;;;;;;8.15;5.65;;;;;;;;;;5052812;28;20028;-77
2022/11/09 12:30:04;;;;;;;10.55;5.88;;;;;;;;;;5052774;28;20029;-76
2022/11/09 12:32:54;;;;;;;10.43;6.72;;;;;;;;;;5052733;28;20157;-75
2022/11/09 12:35:29;;;;;;;11.77;7.03;;;;;;;;;;5052981;28;20021;-76
2022/11/09 12:38:04;;;;;;;8.82;5.43;;;;;;;;;;5051409;28;20433;-76
2022/11/09 12:40:36;;;;;;;10.25;6.45;;;;;;;;;;5052598;28;20028;-76
2022/11/09 12:43:22;;;;;;;9.25;5.93;;;;;;;;;;5035684;28;20029;-76
2022/11/09 12:45:50;;;;;;;8.20;5.82;;;;;;;;;;5056804;28;20071;-76
2022/11/09 12:48:22;;;;;;;9.48;6.57;;;;;;;;;;5056811;28;20028;-76
2022/11/09 12:50:49;;;;;;;10.90;6.53;;;;;;;;;;5056548;28;20024;-75
2022/11/09 12:53:15;;;;;;;10.15;6.88;;;;;;;;;;5056573;28;20029;-75
2022/11/09 12:56:00;;;;;;;10.75;7.45;;;;;;;;;;5055207;28;20043;-76
2022/11/09 12:58:29;;;;;;;10.25;6.97;;;;;;;;;;5056772;28;20367;-76
2022/11/09 13:00:56;;;;;;;10.48;7.35;;;;;;;;;;5056342;28;20035;-75
2022/11/09 13:03:25;;;;;;;11.00;7.22;;;;;;;;;;5056330;28;20020;-77
2022/11/09 13:06:12;;;;;;;8.98;6.30;;;;;;;;;;5055048;28;20021;-76
2022/11/09 13:08:39;;;;;;;11.13;7.50;;;;;;;;;;5024492;28;20032;-76
2022/11/09 13:11:18;;;;;;;10.45;7.47;;;;;;;;;;5056512;28;20490;-76
2022/11/09 13:13:44;;;;;;;12.43;7.40;;;;;;;;;;5038221;28;20025;-76
2022/11/09 13:16:18;;;;;;;10.32;6.93;;;;;;;;;;5056152;28;20029;-76
2022/11/09 13:18:43;;;;;;;15.73;8.55;;;;;;;;;;5056378;28;20029;-75
2022/11/09 13:21:21;;;;;;;16.00;7.47;;;;;;;;;;5038138;28;20075;-77
2022/11/09 13:23:47;;;;;;;13.93;7.45;;;;;;;;;;5055983;28;20029;-75
2022/11/09 13:26:31;;;;;;;14.10;7.35;;;;;;;;;;5055969;28;20036;-76
2022/11/09 13:29:21;;;;;;;9.77;7.28;;;;;;;;;;5055877;28;20454;-76
2022/11/09 13:32:29;;;;;;;12.13;7.38;;;;;;;;;;5017810;28;20143;-76
2022/11/09 13:34:55;;;;;;;10.05;6.90;;;;;;;;;;4974991;28;20027;-76
2022/11/09 13:37:35;;;;;;;11.88;7.30;;;;;;;;;;4975259;28;20031;-76
2022/11/09 13:40:32;;;;;;;10.27;7.07;;;;;;;;;;5022061;28;20032;-75
2022/11/09 13:43:00;;;;;;;19.55;7.35;;;;;;;;;;5055529;28;20097;-77
2022/11/09 13:45:36;;;;;;;12.77;7.68;;;;;;;;;;5055597;28;20021;-76
2022/11/09 13:48:03;;;;;;;10.43;7.32;;;;;;;;;;5055232;28;20078;-76
2022/11/09 13:50:30;;;;;;;12.90;7.47;;;;;;;;;;5055376;28;20573;-77
2022/11/09 13:52:57;;;;;;;10.25;7.30;;;;;;;;;;5055662;28;20052;-77
2022/11/09 13:55:28;;;;;;;8.77;5.82;;;;;;;;;;5036013;28;20526;-76
2022/11/09 13:57:57;;;;;;;13.27;8.48;;;;;;;;;;5055212;28;20032;-76
2022/11/09 14:00:24;;;;;;;13.70;8.05;;;;;;;;;;5055176;28;20021;-76
2022/11/09 14:02:59;;;;;;;13.05;8.07;;;;;;;;;;5055312;28;20028;-76
2022/11/09 14:05:30;;;;;;;13.25;8.63;;;;;;;;;;5053744;28;20025;-75
2022/11/09 14:08:00;;;;;;;16.40;8.15;;;;;;;;;;5037220;28;20040;-76
2022/11/09 14:10:41;;;;;;;12.02;8.13;;;;;;;;;;5053697;28;20025;-75
2022/11/09 14:13:27;;;;;;;16.60;9.07;;;;;;;;;;5037346;28;20025;-76
2022/11/09 14:16:02;;;;;;;13.15;8.43;;;;;;;;;;5054936;28;20025;-76
2022/11/09 14:18:59;;;;;;;15.15;8.50;;;;;;;;;;5055469;28;20111;-77
2022/11/09 14:21:46;;;;;;;13.88;8.20;;;;;;;;;;5055017;28;20414;-76
2022/11/09 14:24:22;;;;;;;15.13;8.23;;;;;;;;;;5037501;28;20033;-76
2022/11/09 14:27:08;;;;;;;12.43;8.30;;;;;;;;;;5054787;28;20040;-77
2022/11/09 14:29:36;;;;;;;13.98;8.48;;;;;;;;;;5036876;28;20116;-76
2022/11/09 14:32:21;;;;;;;15.55;9.13;;;;;;;;;;5054599;28;20029;-76
2022/11/09 14:34:46;;;;;;;12.95;8.52;;;;;;;;;;5054837;28;20363;-76
2022/11/09 14:37:13;;;;;;;15.00;9.05;;;;;;;;;;5054568;28;20031;-76
2022/11/09 14:39:38;;;;;;;17.10;9.65;;;;;;;;;;5054493;28;20075;-77
2022/11/09 14:42:06;;;;;;;15.13;9.43;;;;;;;;;;5054232;28;20020;-76
2022/11/09 14:44:39;;;;;;;17.73;10.27;;;;;;;;;;5054225;28;20075;-76
2022/11/09 14:47:10;;;;;;;15.63;9.77;;;;;;;;;;5036334;28;20056;-76
2022/11/09 14:49:35;;;;;;;16.38;9.18;;;;;;;;;;5054577;28;20039;-77